sensor_id;sensor_type;location;lat;lon;timestamp;P1;durP1;ratioP1;P2;durP2;ratioP2
4986;SDS011;12674;51.500;7.552;2024-01-15T00:00:51;33.60;;;17.47;;
4986;SDS011;12674;51.500;7.552;2024-01-15T00:02:55;28.77;;;17.10;;
4986;SDS011;12674;51.500;7.552;2024-01-15T00:04:58;27.87;;;18.03;;
4986;SDS011;12674;51.500;7.552;2024-01-15T00:07:02;29.33;;;18.77;;
4986;SDS011;12674;51.500;7.552;2024-01-15T00:09:07;32.33;;;18.87;;
4986;SDS011;12674;51.500;7.552;2024-01-15T00:11:10;28.87;;;17.53;;
4986;SDS011;12674;51.500;7.552;2024-01-15T00:13:13;30.63;;;18.07;;
4986;SDS011;12674;51.500;7.552;2024-01-15T00:15:16;29.87;;;17.70;;
4986;SDS011;12674;51.500;7.552;2024-01-15T00:17:19;30.30;;;18.40;;
4986;SDS011;12674;51.500;7.552;2024-01-15T00:19:21;33.33;;;19.73;;
4986;SDS011;12674;51.500;7.552;2024-01-15T00:21:25;33.57;;;19.73;;
4986;SDS011;12674;51.500;7.552;2024-01-15T00:23:29;29.20;;;19.03;;
4986;SDS011;12674;51.500;7.552;2024-01-15T00:25:33;28.70;;;18.27;;
4986;SDS011;12674;51.500;7.552;2024-01-15T00:27:36;34.63;;;20.47;;
4986;SDS011;12674;51.500;7.552;2024-01-15T00:29:39;39.30;;;21.13;;
4986;SDS011;12674;51.500;7.552;2024-01-15T00:31:42;30.50;;;18.60;;
4986;SDS011;12674;51.500;7.552;2024-01-15T00:33:45;33.37;;;19.77;;
4986;SDS011;12674;51.500;7.552;2024-01-15T00:35:49;34.17;;;20.60;;
4986;SDS011;12674;51.500;7.552;2024-01-15T00:37:52;35.00;;;19.67;;
4986;SDS011;12674;51.500;7.552;2024-01-15T00:39:55;38.33;;;21.27;;
4986;SDS011;12674;51.500;7.552;2024-01-15T00:42:00;33.07;;;20.93;;
4986;SDS011;12674;51.500;7.552;2024-01-15T00:44:03;38.87;;;22.07;;
4986;SDS011;12674;51.500;7.552;2024-01-15T00:46:06;32.73;;;18.83;;
4986;SDS011;12674;51.500;7.552;2024-01-15T00:48:09;33.07;;;20.20;;
4986;SDS011;12674;51.500;7.552;2024-01-15T00:50:11;31.70;;;19.20;;
4986;SDS011;12674;51.500;7.552;2024-01-15T00:52:14;36.13;;;20.87;;
4986;SDS011;12674;51.500;7.552;2024-01-15T00:54:17;31.17;;;19.67;;
4986;SDS011;12674;51.500;7.552;2024-01-15T00:56:20;35.73;;;19.93;;
4986;SDS011;12674;51.500;7.552;2024-01-15T00:58:25;34.20;;;20.07;;
4986;SDS011;12674;51.500;7.552;2024-01-15T01:00:28;36.53;;;21.13;;
4986;SDS011;12674;51.500;7.552;2024-01-15T01:02:31;36.03;;;21.07;;
4986;SDS011;12674;51.500;7.552;2024-01-15T01:04:34;37.87;;;20.30;;
4986;SDS011;12674;51.500;7.552;2024-01-15T01:06:37;35.30;;;20.10;;
4986;SDS011;12674;51.500;7.552;2024-01-15T01:08:40;37.40;;;21.43;;
4986;SDS011;12674;51.500;7.552;2024-01-15T01:10:43;36.93;;;20.10;;
4986;SDS011;12674;51.500;7.552;2024-01-15T01:12:46;40.10;;;21.20;;
4986;SDS011;12674;51.500;7.552;2024-01-15T01:14:50;35.87;;;20.40;;
4986;SDS011;12674;51.500;7.552;2024-01-15T01:16:53;34.13;;;19.60;;
4986;SDS011;12674;51.500;7.552;2024-01-15T01:18:56;32.43;;;19.73;;
4986;SDS011;12674;51.500;7.552;2024-01-15T01:21:00;35.40;;;21.20;;
4986;SDS011;12674;51.500;7.552;2024-01-15T01:23:07;37.17;;;20.83;;
4986;SDS011;12674;51.500;7.552;2024-01-15T01:25:10;35.40;;;19.57;;
4986;SDS011;12674;51.500;7.552;2024-01-15T01:27:13;32.27;;;20.27;;
4986;SDS011;12674;51.500;7.552;2024-01-15T01:29:16;35.57;;;21.30;;
4986;SDS011;12674;51.500;7.552;2024-01-15T01:31:21;34.90;;;20.47;;
4986;SDS011;12674;51.500;7.552;2024-01-15T01:33:25;33.50;;;19.60;;
4986;SDS011;12674;51.500;7.552;2024-01-15T01:35:28;37.43;;;20.03;;
4986;SDS011;12674;51.500;7.552;2024-01-15T01:37:31;39.20;;;21.70;;
4986;SDS011;12674;51.500;7.552;2024-01-15T01:39:34;34.60;;;19.80;;
4986;SDS011;12674;51.500;7.552;2024-01-15T01:41:38;30.33;;;18.70;;
4986;SDS011;12674;51.500;7.552;2024-01-15T01:43:41;36.90;;;19.07;;
4986;SDS011;12674;51.500;7.552;2024-01-15T01:45:45;43.57;;;20.47;;
4986;SDS011;12674;51.500;7.552;2024-01-15T01:47:50;34.33;;;19.53;;
4986;SDS011;12674;51.500;7.552;2024-01-15T01:49:53;36.27;;;19.03;;
4986;SDS011;12674;51.500;7.552;2024-01-15T01:51:57;35.00;;;18.40;;
4986;SDS011;12674;51.500;7.552;2024-01-15T01:54:01;33.23;;;17.53;;
4986;SDS011;12674;51.500;7.552;2024-01-15T01:56:04;32.90;;;19.50;;
4986;SDS011;12674;51.500;7.552;2024-01-15T01:58:08;31.60;;;17.87;;
4986;SDS011;12674;51.500;7.552;2024-01-15T02:00:11;36.20;;;18.93;;
4986;SDS011;12674;51.500;7.552;2024-01-15T02:02:15;38.23;;;18.93;;
4986;SDS011;12674;51.500;7.552;2024-01-15T02:04:20;31.27;;;19.70;;
4986;SDS011;12674;51.500;7.552;2024-01-15T02:06:24;37.90;;;20.80;;
4986;SDS011;12674;51.500;7.552;2024-01-15T02:08:27;34.30;;;20.00;;
4986;SDS011;12674;51.500;7.552;2024-01-15T02:10:30;36.27;;;19.57;;
4986;SDS011;12674;51.500;7.552;2024-01-15T02:12:33;36.17;;;20.40;;
4986;SDS011;12674;51.500;7.552;2024-01-15T02:14:36;33.37;;;19.20;;
4986;SDS011;12674;51.500;7.552;2024-01-15T02:16:40;31.97;;;19.33;;
4986;SDS011;12674;51.500;7.552;2024-01-15T02:18:43;35.37;;;20.07;;
4986;SDS011;12674;51.500;7.552;2024-01-15T02:20:49;40.00;;;20.27;;
4986;SDS011;12674;51.500;7.552;2024-01-15T02:22:52;36.80;;;19.70;;
4986;SDS011;12674;51.500;7.552;2024-01-15T02:24:55;35.63;;;18.90;;
4986;SDS011;12674;51.500;7.552;2024-01-15T02:26:58;43.17;;;20.10;;
4986;SDS011;12674;51.500;7.552;2024-01-15T02:29:01;30.20;;;17.60;;
4986;SDS011;12674;51.500;7.552;2024-01-15T02:31:05;32.43;;;18.90;;
4986;SDS011;12674;51.500;7.552;2024-01-15T02:33:08;31.97;;;17.87;;
4986;SDS011;12674;51.500;7.552;2024-01-15T02:35:12;29.70;;;18.67;;
4986;SDS011;12674;51.500;7.552;2024-01-15T02:37:14;32.37;;;17.93;;
4986;SDS011;12674;51.500;7.552;2024-01-15T02:39:17;28.60;;;18.13;;
4986;SDS011;12674;51.500;7.552;2024-01-15T02:41:20;35.80;;;18.97;;
4986;SDS011;12674;51.500;7.552;2024-01-15T02:43:23;29.20;;;16.83;;
4986;SDS011;12674;51.500;7.552;2024-01-15T02:45:26;27.73;;;17.40;;
4986;SDS011;12674;51.500;7.552;2024-01-15T02:47:29;29.97;;;17.20;;
4986;SDS011;12674;51.500;7.552;2024-01-15T02:49:32;32.73;;;16.00;;
4986;SDS011;12674;51.500;7.552;2024-01-15T02:51:35;27.33;;;16.10;;
4986;SDS011;12674;51.500;7.552;2024-01-15T02:53:39;29.53;;;16.77;;
4986;SDS011;12674;51.500;7.552;2024-01-15T02:55:43;34.07;;;18.20;;
4986;SDS011;12674;51.500;7.552;2024-01-15T02:57:47;27.83;;;16.43;;
4986;SDS011;12674;51.500;7.552;2024-01-15T02:59:50;26.80;;;16.90;;
4986;SDS011;12674;51.500;7.552;2024-01-15T03:01:53;26.40;;;16.23;;
4986;SDS011;12674;51.500;7.552;2024-01-15T03:03:56;25.30;;;16.30;;
4986;SDS011;12674;51.500;7.552;2024-01-15T03:05:59;30.20;;;15.93;;
4986;SDS011;12674;51.500;7.552;2024-01-15T03:08:01;26.23;;;16.57;;
4986;SDS011;12674;51.500;7.552;2024-01-15T03:10:04;29.43;;;16.27;;
4986;SDS011;12674;51.500;7.552;2024-01-15T03:12:09;25.20;;;16.30;;
4986;SDS011;12674;51.500;7.552;2024-01-15T03:14:12;26.73;;;14.50;;
4986;SDS011;12674;51.500;7.552;2024-01-15T03:16:16;25.33;;;16.20;;
4986;SDS011;12674;51.500;7.552;2024-01-15T03:18:21;33.77;;;17.20;;
4986;SDS011;12674;51.500;7.552;2024-01-15T03:20:24;26.40;;;16.20;;
4986;SDS011;12674;51.500;7.552;2024-01-15T03:22:27;29.43;;;15.60;;
4986;SDS011;12674;51.500;7.552;2024-01-15T03:24:31;30.97;;;17.20;;
4986;SDS011;12674;51.500;7.552;2024-01-15T03:26:33;26.80;;;16.63;;
4986;SDS011;12674;51.500;7.552;2024-01-15T03:28:36;28.57;;;16.67;;
4986;SDS011;12674;51.500;7.552;2024-01-15T03:30:41;24.53;;;14.60;;
4986;SDS011;12674;51.500;7.552;2024-01-15T03:32:44;28.47;;;15.37;;
4986;SDS011;12674;51.500;7.552;2024-01-15T03:34:46;41.30;;;16.27;;
4986;SDS011;12674;51.500;7.552;2024-01-15T03:36:50;29.87;;;15.87;;
4986;SDS011;12674;51.500;7.552;2024-01-15T03:38:53;34.53;;;14.50;;
4986;SDS011;12674;51.500;7.552;2024-01-15T03:40:56;24.57;;;15.83;;
4986;SDS011;12674;51.500;7.552;2024-01-15T03:42:59;27.80;;;14.97;;
4986;SDS011;12674;51.500;7.552;2024-01-15T03:45:02;26.10;;;15.40;;
4986;SDS011;12674;51.500;7.552;2024-01-15T03:47:08;23.80;;;13.43;;
4986;SDS011;12674;51.500;7.552;2024-01-15T03:49:12;23.20;;;14.37;;
4986;SDS011;12674;51.500;7.552;2024-01-15T03:51:15;22.30;;;14.50;;
4986;SDS011;12674;51.500;7.552;2024-01-15T03:53:19;26.57;;;14.37;;
4986;SDS011;12674;51.500;7.552;2024-01-15T03:55:22;25.37;;;14.27;;
4986;SDS011;12674;51.500;7.552;2024-01-15T03:57:25;27.53;;;14.67;;
4986;SDS011;12674;51.500;7.552;2024-01-15T03:59:28;21.37;;;13.80;;
4986;SDS011;12674;51.500;7.552;2024-01-15T04:01:32;24.63;;;14.80;;
4986;SDS011;12674;51.500;7.552;2024-01-15T04:03:37;32.13;;;15.07;;
4986;SDS011;12674;51.500;7.552;2024-01-15T04:05:39;31.50;;;13.80;;
4986;SDS011;12674;51.500;7.552;2024-01-15T04:07:42;30.40;;;15.50;;
4986;SDS011;12674;51.500;7.552;2024-01-15T04:09:45;24.87;;;13.23;;
4986;SDS011;12674;51.500;7.552;2024-01-15T04:11:47;28.17;;;15.80;;
4986;SDS011;12674;51.500;7.552;2024-01-15T04:13:51;31.33;;;14.70;;
4986;SDS011;12674;51.500;7.552;2024-01-15T04:15:54;28.80;;;14.40;;
4986;SDS011;12674;51.500;7.552;2024-01-15T04:17:57;26.40;;;14.10;;
4986;SDS011;12674;51.500;7.552;2024-01-15T04:20:04;28.17;;;15.00;;
4986;SDS011;12674;51.500;7.552;2024-01-15T04:22:08;26.37;;;14.00;;
4986;SDS011;12674;51.500;7.552;2024-01-15T04:24:11;28.50;;;15.43;;
4986;SDS011;12674;51.500;7.552;2024-01-15T04:26:14;21.97;;;14.20;;
4986;SDS011;12674;51.500;7.552;2024-01-15T04:28:17;31.27;;;14.80;;
4986;SDS011;12674;51.500;7.552;2024-01-15T04:30:20;22.80;;;14.27;;
4986;SDS011;12674;51.500;7.552;2024-01-15T04:32:24;27.33;;;14.77;;
4986;SDS011;12674;51.500;7.552;2024-01-15T04:34:27;21.40;;;13.93;;
4986;SDS011;12674;51.500;7.552;2024-01-15T04:36:32;20.33;;;13.80;;
4986;SDS011;12674;51.500;7.552;2024-01-15T04:38:35;23.30;;;12.23;;
4986;SDS011;12674;51.500;7.552;2024-01-15T04:40:38;18.23;;;12.00;;
4986;SDS011;12674;51.500;7.552;2024-01-15T04:42:42;21.23;;;12.90;;
4986;SDS011;12674;51.500;7.552;2024-01-15T04:44:47;25.90;;;12.43;;
4986;SDS011;12674;51.500;7.552;2024-01-15T04:46:50;25.43;;;11.90;;
4986;SDS011;12674;51.500;7.552;2024-01-15T04:48:53;19.17;;;12.50;;
4986;SDS011;12674;51.500;7.552;2024-01-15T04:50:57;25.20;;;11.90;;
4986;SDS011;12674;51.500;7.552;2024-01-15T04:53:01;17.33;;;11.70;;
4986;SDS011;12674;51.500;7.552;2024-01-15T04:55:04;30.83;;;11.73;;
4986;SDS011;12674;51.500;7.552;2024-01-15T04:57:08;17.27;;;10.77;;
4986;SDS011;12674;51.500;7.552;2024-01-15T04:59:11;20.53;;;12.20;;
4986;SDS011;12674;51.500;7.552;2024-01-15T05:01:15;26.30;;;12.07;;
4986;SDS011;12674;51.500;7.552;2024-01-15T05:03:19;22.50;;;12.17;;
4986;SDS011;12674;51.500;7.552;2024-01-15T05:05:23;20.70;;;10.80;;
4986;SDS011;12674;51.500;7.552;2024-01-15T05:07:26;23.43;;;12.00;;
4986;SDS011;12674;51.500;7.552;2024-01-15T05:09:30;25.77;;;10.70;;
4986;SDS011;12674;51.500;7.552;2024-01-15T05:11:34;25.23;;;12.43;;
4986;SDS011;12674;51.500;7.552;2024-01-15T05:13:36;30.83;;;13.17;;
4986;SDS011;12674;51.500;7.552;2024-01-15T05:15:40;22.33;;;11.30;;
4986;SDS011;12674;51.500;7.552;2024-01-15T05:17:43;21.17;;;12.70;;
4986;SDS011;12674;51.500;7.552;2024-01-15T05:19:47;20.80;;;10.93;;
4986;SDS011;12674;51.500;7.552;2024-01-15T05:21:50;16.30;;;11.10;;
4986;SDS011;12674;51.500;7.552;2024-01-15T05:23:53;21.90;;;11.30;;
4986;SDS011;12674;51.500;7.552;2024-01-15T05:25:58;31.47;;;13.07;;
4986;SDS011;12674;51.500;7.552;2024-01-15T05:28:01;13.93;;;10.50;;
4986;SDS011;12674;51.500;7.552;2024-01-15T05:30:04;25.43;;;12.70;;
4986;SDS011;12674;51.500;7.552;2024-01-15T05:32:08;25.70;;;12.47;;
4986;SDS011;12674;51.500;7.552;2024-01-15T05:34:10;33.30;;;12.07;;
4986;SDS011;12674;51.500;7.552;2024-01-15T05:36:13;17.60;;;11.73;;
4986;SDS011;12674;51.500;7.552;2024-01-15T05:38:17;14.37;;;10.07;;
4986;SDS011;12674;51.500;7.552;2024-01-15T05:40:20;23.20;;;10.63;;
4986;SDS011;12674;51.500;7.552;2024-01-15T05:42:24;20.40;;;11.97;;
4986;SDS011;12674;51.500;7.552;2024-01-15T05:44:28;26.07;;;11.77;;
4986;SDS011;12674;51.500;7.552;2024-01-15T05:46:31;22.47;;;11.13;;
4986;SDS011;12674;51.500;7.552;2024-01-15T05:48:33;19.63;;;10.90;;
4986;SDS011;12674;51.500;7.552;2024-01-15T05:50:36;16.33;;;11.73;;
4986;SDS011;12674;51.500;7.552;2024-01-15T05:52:39;19.60;;;11.83;;
4986;SDS011;12674;51.500;7.552;2024-01-15T05:54:42;16.83;;;10.87;;
4986;SDS011;12674;51.500;7.552;2024-01-15T05:56:45;23.37;;;12.00;;
4986;SDS011;12674;51.500;7.552;2024-01-15T05:58:50;14.87;;;11.27;;
4986;SDS011;12674;51.500;7.552;2024-01-15T06:00:53;30.80;;;12.10;;
4986;SDS011;12674;51.500;7.552;2024-01-15T06:02:55;22.40;;;11.57;;
4986;SDS011;12674;51.500;7.552;2024-01-15T06:04:58;16.87;;;10.80;;
4986;SDS011;12674;51.500;7.552;2024-01-15T06:07:03;23.23;;;10.67;;
4986;SDS011;12674;51.500;7.552;2024-01-15T06:09:07;21.20;;;11.70;;
4986;SDS011;12674;51.500;7.552;2024-01-15T06:11:10;17.27;;;11.03;;
4986;SDS011;12674;51.500;7.552;2024-01-15T06:13:12;20.03;;;11.73;;
4986;SDS011;12674;51.500;7.552;2024-01-15T06:15:18;14.57;;;10.20;;
4986;SDS011;12674;51.500;7.552;2024-01-15T06:17:20;20.20;;;12.00;;
4986;SDS011;12674;51.500;7.552;2024-01-15T06:19:23;22.80;;;11.80;;
4986;SDS011;12674;51.500;7.552;2024-01-15T06:21:26;26.37;;;11.40;;
4986;SDS011;12674;51.500;7.552;2024-01-15T06:23:29;20.27;;;11.60;;
4986;SDS011;12674;51.500;7.552;2024-01-15T06:25:31;27.93;;;11.50;;
4986;SDS011;12674;51.500;7.552;2024-01-15T06:27:34;15.20;;;11.33;;
4986;SDS011;12674;51.500;7.552;2024-01-15T06:29:44;20.17;;;10.40;;
4986;SDS011;12674;51.500;7.552;2024-01-15T06:31:52;23.87;;;11.90;;
4986;SDS011;12674;51.500;7.552;2024-01-15T06:33:57;14.33;;;10.87;;
4986;SDS011;12674;51.500;7.552;2024-01-15T06:36:01;25.33;;;12.17;;
4986;SDS011;12674;51.500;7.552;2024-01-15T06:38:04;18.93;;;12.30;;
4986;SDS011;12674;51.500;7.552;2024-01-15T06:40:08;20.03;;;11.07;;
4986;SDS011;12674;51.500;7.552;2024-01-15T06:42:11;22.90;;;12.47;;
4986;SDS011;12674;51.500;7.552;2024-01-15T06:44:14;22.93;;;11.83;;
4986;SDS011;12674;51.500;7.552;2024-01-15T06:46:19;26.63;;;11.70;;
4986;SDS011;12674;51.500;7.552;2024-01-15T06:48:23;24.10;;;10.83;;
4986;SDS011;12674;51.500;7.552;2024-01-15T06:50:26;19.17;;;11.60;;
4986;SDS011;12674;51.500;7.552;2024-01-15T06:52:28;22.03;;;11.77;;
4986;SDS011;12674;51.500;7.552;2024-01-15T06:54:31;15.87;;;11.20;;
4986;SDS011;12674;51.500;7.552;2024-01-15T06:56:35;21.33;;;11.33;;
4986;SDS011;12674;51.500;7.552;2024-01-15T06:58:38;17.70;;;11.93;;
4986;SDS011;12674;51.500;7.552;2024-01-15T07:00:41;22.30;;;11.90;;
4986;SDS011;12674;51.500;7.552;2024-01-15T07:02:43;24.50;;;11.70;;
4986;SDS011;12674;51.500;7.552;2024-01-15T07:04:48;18.03;;;10.07;;
4986;SDS011;12674;51.500;7.552;2024-01-15T07:06:51;17.50;;;10.23;;
4986;SDS011;12674;51.500;7.552;2024-01-15T07:08:54;19.90;;;12.00;;
4986;SDS011;12674;51.500;7.552;2024-01-15T07:10:56;15.33;;;11.30;;
4986;SDS011;12674;51.500;7.552;2024-01-15T07:12:59;14.60;;;10.00;;
4986;SDS011;12674;51.500;7.552;2024-01-15T07:15:03;21.33;;;9.83;;
4986;SDS011;12674;51.500;7.552;2024-01-15T07:17:08;20.63;;;11.50;;
4986;SDS011;12674;51.500;7.552;2024-01-15T07:19:11;21.40;;;11.07;;
4986;SDS011;12674;51.500;7.552;2024-01-15T07:21:15;15.50;;;10.77;;
4986;SDS011;12674;51.500;7.552;2024-01-15T07:23:18;18.17;;;10.73;;
4986;SDS011;12674;51.500;7.552;2024-01-15T07:25:22;15.13;;;11.57;;
4986;SDS011;12674;51.500;7.552;2024-01-15T07:27:27;20.20;;;11.80;;
4986;SDS011;12674;51.500;7.552;2024-01-15T07:29:33;20.40;;;11.90;;
4986;SDS011;12674;51.500;7.552;2024-01-15T07:31:38;27.33;;;11.67;;
4986;SDS011;12674;51.500;7.552;2024-01-15T07:33:42;19.30;;;11.80;;
4986;SDS011;12674;51.500;7.552;2024-01-15T07:35:45;17.10;;;11.07;;
4986;SDS011;12674;51.500;7.552;2024-01-15T07:37:50;19.27;;;11.83;;
4986;SDS011;12674;51.500;7.552;2024-01-15T07:39:53;17.40;;;11.10;;
4986;SDS011;12674;51.500;7.552;2024-01-15T07:41:56;14.40;;;10.20;;
4986;SDS011;12674;51.500;7.552;2024-01-15T07:43:59;16.00;;;10.40;;
4986;SDS011;12674;51.500;7.552;2024-01-15T07:46:02;15.00;;;10.23;;
4986;SDS011;12674;51.500;7.552;2024-01-15T07:48:06;17.13;;;11.60;;
4986;SDS011;12674;51.500;7.552;2024-01-15T07:50:08;14.97;;;9.67;;
4986;SDS011;12674;51.500;7.552;2024-01-15T07:52:11;18.27;;;10.93;;
4986;SDS011;12674;51.500;7.552;2024-01-15T07:54:16;16.53;;;10.20;;
4986;SDS011;12674;51.500;7.552;2024-01-15T07:56:18;16.60;;;10.17;;
4986;SDS011;12674;51.500;7.552;2024-01-15T07:58:23;10.50;;;9.30;;
4986;SDS011;12674;51.500;7.552;2024-01-15T08:00:27;13.47;;;9.20;;
4986;SDS011;12674;51.500;7.552;2024-01-15T08:02:31;12.67;;;9.70;;
4986;SDS011;12674;51.500;7.552;2024-01-15T08:04:38;12.13;;;9.57;;
4986;SDS011;12674;51.500;7.552;2024-01-15T08:06:41;18.20;;;8.97;;
4986;SDS011;12674;51.500;7.552;2024-01-15T08:08:44;16.10;;;8.00;;
4986;SDS011;12674;51.500;7.552;2024-01-15T08:10:48;10.63;;;7.40;;
4986;SDS011;12674;51.500;7.552;2024-01-15T08:12:51;9.10;;;6.90;;
4986;SDS011;12674;51.500;7.552;2024-01-15T08:14:53;8.87;;;7.00;;
4986;SDS011;12674;51.500;7.552;2024-01-15T08:16:56;9.20;;;6.93;;
4986;SDS011;12674;51.500;7.552;2024-01-15T08:18:59;12.67;;;6.77;;
4986;SDS011;12674;51.500;7.552;2024-01-15T08:21:02;7.33;;;5.83;;
4986;SDS011;12674;51.500;7.552;2024-01-15T08:23:06;9.00;;;6.00;;
4986;SDS011;12674;51.500;7.552;2024-01-15T08:25:09;11.70;;;5.03;;
4986;SDS011;12674;51.500;7.552;2024-01-15T08:27:14;5.83;;;5.23;;
4986;SDS011;12674;51.500;7.552;2024-01-15T08:29:17;12.20;;;6.33;;
4986;SDS011;12674;51.500;7.552;2024-01-15T08:31:22;7.37;;;4.87;;
4986;SDS011;12674;51.500;7.552;2024-01-15T08:33:25;5.90;;;5.30;;
4986;SDS011;12674;51.500;7.552;2024-01-15T08:35:29;7.63;;;5.20;;
4986;SDS011;12674;51.500;7.552;2024-01-15T08:37:32;9.00;;;5.27;;
4986;SDS011;12674;51.500;7.552;2024-01-15T08:39:34;10.20;;;5.17;;
4986;SDS011;12674;51.500;7.552;2024-01-15T08:41:41;13.87;;;5.90;;
4986;SDS011;12674;51.500;7.552;2024-01-15T08:43:46;5.87;;;4.00;;
4986;SDS011;12674;51.500;7.552;2024-01-15T08:45:49;11.40;;;5.30;;
4986;SDS011;12674;51.500;7.552;2024-01-15T08:47:53;9.70;;;5.20;;
4986;SDS011;12674;51.500;7.552;2024-01-15T08:49:56;9.47;;;5.30;;
4986;SDS011;12674;51.500;7.552;2024-01-15T08:52:00;8.07;;;5.10;;
4986;SDS011;12674;51.500;7.552;2024-01-15T08:54:03;8.43;;;5.70;;
4986;SDS011;12674;51.500;7.552;2024-01-15T08:56:07;11.83;;;6.40;;
4986;SDS011;12674;51.500;7.552;2024-01-15T08:58:10;8.60;;;6.93;;
4986;SDS011;12674;51.500;7.552;2024-01-15T09:00:15;12.70;;;6.93;;
4986;SDS011;12674;51.500;7.552;2024-01-15T09:02:18;9.53;;;7.63;;
4986;SDS011;12674;51.500;7.552;2024-01-15T09:04:22;10.13;;;8.37;;
4986;SDS011;12674;51.500;7.552;2024-01-15T09:06:24;10.13;;;8.60;;
4986;SDS011;12674;51.500;7.552;2024-01-15T09:08:27;11.60;;;8.87;;
4986;SDS011;12674;51.500;7.552;2024-01-15T09:10:29;9.53;;;8.57;;
4986;SDS011;12674;51.500;7.552;2024-01-15T09:12:32;13.23;;;9.07;;
4986;SDS011;12674;51.500;7.552;2024-01-15T09:14:35;16.43;;;9.27;;
4986;SDS011;12674;51.500;7.552;2024-01-15T09:16:40;10.73;;;8.77;;
4986;SDS011;12674;51.500;7.552;2024-01-15T09:18:43;12.17;;;8.57;;
4986;SDS011;12674;51.500;7.552;2024-01-15T09:20:48;10.27;;;8.47;;
4986;SDS011;12674;51.500;7.552;2024-01-15T09:22:51;10.03;;;8.93;;
4986;SDS011;12674;51.500;7.552;2024-01-15T09:24:54;9.80;;;8.70;;
4986;SDS011;12674;51.500;7.552;2024-01-15T09:26:57;9.57;;;8.57;;
4986;SDS011;12674;51.500;7.552;2024-01-15T09:29:00;10.10;;;9.10;;
4986;SDS011;12674;51.500;7.552;2024-01-15T09:31:04;10.47;;;8.13;;
4986;SDS011;12674;51.500;7.552;2024-01-15T09:33:09;8.60;;;7.67;;
4986;SDS011;12674;51.500;7.552;2024-01-15T09:35:12;11.53;;;9.50;;
4986;SDS011;12674;51.500;7.552;2024-01-15T09:37:16;10.03;;;9.03;;
4986;SDS011;12674;51.500;7.552;2024-01-15T09:39:39;11.10;;;8.87;;
4986;SDS011;12674;51.500;7.552;2024-01-15T09:41:42;9.53;;;8.53;;
4986;SDS011;12674;51.500;7.552;2024-01-15T09:43:48;9.93;;;8.63;;
4986;SDS011;12674;51.500;7.552;2024-01-15T09:45:53;10.80;;;8.80;;
4986;SDS011;12674;51.500;7.552;2024-01-15T09:47:57;11.13;;;9.03;;
4986;SDS011;12674;51.500;7.552;2024-01-15T09:50:02;9.67;;;8.67;;
4986;SDS011;12674;51.500;7.552;2024-01-15T09:52:06;9.60;;;8.60;;
4986;SDS011;12674;51.500;7.552;2024-01-15T09:54:13;12.43;;;9.67;;
4986;SDS011;12674;51.500;7.552;2024-01-15T09:56:18;11.17;;;9.17;;
4986;SDS011;12674;51.500;7.552;2024-01-15T09:58:21;11.40;;;9.90;;
4986;SDS011;12674;51.500;7.552;2024-01-15T10:00:25;11.47;;;8.73;;
4986;SDS011;12674;51.500;7.552;2024-01-15T10:02:28;9.97;;;8.93;;
4986;SDS011;12674;51.500;7.552;2024-01-15T10:04:32;8.77;;;7.97;;
4986;SDS011;12674;51.500;7.552;2024-01-15T10:06:36;12.90;;;9.70;;
4986;SDS011;12674;51.500;7.552;2024-01-15T10:08:41;9.63;;;8.57;;
4986;SDS011;12674;51.500;7.552;2024-01-15T10:10:45;8.43;;;7.57;;
4986;SDS011;12674;51.500;7.552;2024-01-15T10:12:48;11.03;;;8.40;;
4986;SDS011;12674;51.500;7.552;2024-01-15T10:14:52;9.23;;;8.43;;
4986;SDS011;12674;51.500;7.552;2024-01-15T10:16:54;7.60;;;6.70;;
4986;SDS011;12674;51.500;7.552;2024-01-15T10:18:57;9.03;;;7.03;;
4986;SDS011;12674;51.500;7.552;2024-01-15T10:21:00;7.43;;;6.73;;
4986;SDS011;12674;51.500;7.552;2024-01-15T10:23:05;6.50;;;5.90;;
4986;SDS011;12674;51.500;7.552;2024-01-15T10:25:10;7.27;;;6.17;;
4986;SDS011;12674;51.500;7.552;2024-01-15T10:27:13;6.03;;;5.43;;
4986;SDS011;12674;51.500;7.552;2024-01-15T10:29:16;5.90;;;5.30;;
4986;SDS011;12674;51.500;7.552;2024-01-15T10:31:20;6.23;;;5.50;;
4986;SDS011;12674;51.500;7.552;2024-01-15T10:33:26;5.17;;;4.77;;
4986;SDS011;12674;51.500;7.552;2024-01-15T10:35:30;6.50;;;5.80;;
4986;SDS011;12674;51.500;7.552;2024-01-15T10:37:34;6.87;;;5.50;;
4986;SDS011;12674;51.500;7.552;2024-01-15T10:39:38;6.50;;;5.57;;
4986;SDS011;12674;51.500;7.552;2024-01-15T10:41:41;7.40;;;6.00;;
4986;SDS011;12674;51.500;7.552;2024-01-15T10:43:44;5.60;;;5.10;;
4986;SDS011;12674;51.500;7.552;2024-01-15T10:45:47;7.73;;;5.50;;
4986;SDS011;12674;51.500;7.552;2024-01-15T10:47:51;6.83;;;6.13;;
4986;SDS011;12674;51.500;7.552;2024-01-15T10:49:54;5.40;;;4.90;;
4986;SDS011;12674;51.500;7.552;2024-01-15T10:51:56;6.83;;;5.53;;
4986;SDS011;12674;51.500;7.552;2024-01-15T10:54:00;6.40;;;5.60;;
4986;SDS011;12674;51.500;7.552;2024-01-15T10:56:05;5.67;;;5.17;;
4986;SDS011;12674;51.500;7.552;2024-01-15T10:58:08;6.07;;;5.40;;
4986;SDS011;12674;51.500;7.552;2024-01-15T11:00:12;6.50;;;5.57;;
4986;SDS011;12674;51.500;7.552;2024-01-15T11:02:17;6.57;;;5.87;;
4986;SDS011;12674;51.500;7.552;2024-01-15T11:04:21;6.77;;;6.07;;
4986;SDS011;12674;51.500;7.552;2024-01-15T11:06:26;6.87;;;6.17;;
4986;SDS011;12674;51.500;7.552;2024-01-15T11:08:31;6.17;;;5.47;;
4986;SDS011;12674;51.500;7.552;2024-01-15T11:10:40;9.30;;;6.83;;
4986;SDS011;12674;51.500;7.552;2024-01-15T11:12:44;13.07;;;7.30;;
4986;SDS011;12674;51.500;7.552;2024-01-15T11:14:50;11.63;;;6.60;;
4986;SDS011;12674;51.500;7.552;2024-01-15T11:16:56;9.10;;;6.87;;
4986;SDS011;12674;51.500;7.552;2024-01-15T11:19:01;7.23;;;6.13;;
4986;SDS011;12674;51.500;7.552;2024-01-15T11:23:42;11.83;;;7.40;;
4986;SDS011;12674;51.500;7.552;2024-01-15T11:25:44;9.60;;;7.07;;
4986;SDS011;12674;51.500;7.552;2024-01-15T11:27:49;13.13;;;7.90;;
4986;SDS011;12674;51.500;7.552;2024-01-15T11:30:02;9.60;;;6.30;;
4986;SDS011;12674;51.500;7.552;2024-01-15T11:32:06;6.60;;;6.00;;
4986;SDS011;12674;51.500;7.552;2024-01-15T11:34:10;7.40;;;5.90;;
4986;SDS011;12674;51.500;7.552;2024-01-15T11:36:13;8.07;;;7.03;;
4986;SDS011;12674;51.500;7.552;2024-01-15T11:38:26;7.80;;;7.00;;
4986;SDS011;12674;51.500;7.552;2024-01-15T11:40:36;10.90;;;5.90;;
4986;SDS011;12674;51.500;7.552;2024-01-15T11:42:39;7.10;;;6.00;;
4986;SDS011;12674;51.500;7.552;2024-01-15T11:44:44;6.57;;;5.90;;
4986;SDS011;12674;51.500;7.552;2024-01-15T11:46:49;10.80;;;6.63;;
4986;SDS011;12674;51.500;7.552;2024-01-15T11:48:57;7.10;;;6.40;;
4986;SDS011;12674;51.500;7.552;2024-01-15T11:51:07;11.63;;;5.80;;
4986;SDS011;12674;51.500;7.552;2024-01-15T11:53:16;6.67;;;5.70;;
4986;SDS011;12674;51.500;7.552;2024-01-15T11:55:21;10.63;;;6.30;;
4986;SDS011;12674;51.500;7.552;2024-01-15T11:57:28;8.20;;;6.03;;
4986;SDS011;12674;51.500;7.552;2024-01-15T11:59:36;13.53;;;6.87;;
4986;SDS011;12674;51.500;7.552;2024-01-15T12:01:40;8.80;;;5.80;;
4986;SDS011;12674;51.500;7.552;2024-01-15T12:03:44;8.90;;;5.93;;
4986;SDS011;12674;51.500;7.552;2024-01-15T12:05:49;11.20;;;5.80;;
4986;SDS011;12674;51.500;7.552;2024-01-15T12:07:53;6.00;;;5.40;;
4986;SDS011;12674;51.500;7.552;2024-01-15T12:09:56;12.40;;;5.60;;
4986;SDS011;12674;51.500;7.552;2024-01-15T12:12:00;6.00;;;5.17;;
4986;SDS011;12674;51.500;7.552;2024-01-15T12:14:09;11.63;;;5.30;;
4986;SDS011;12674;51.500;7.552;2024-01-15T12:16:12;11.33;;;5.20;;
4986;SDS011;12674;51.500;7.552;2024-01-15T12:18:17;9.23;;;5.40;;
4986;SDS011;12674;51.500;7.552;2024-01-15T12:20:21;9.13;;;5.07;;
4986;SDS011;12674;51.500;7.552;2024-01-15T12:22:24;5.90;;;4.67;;
4986;SDS011;12674;51.500;7.552;2024-01-15T12:24:29;6.07;;;4.30;;